F/V Le Belier — FOUS — position and weather

sailwx.info

Track history (hours):
 
Tides and Currents Weather Stations Pressure Air Temp Water Temp Dewpoint Dewpoint Depression Visibility Wind Speed Wind Dir Waves Ship Positions

F/V Le Belier

Last reported at 2018-Jan-23 00:50 UTC. Time now 2018-Jan-23 14:02 UTC.
Position N 46°41' W 003°21'.

Length 16 m.

Type: Fishing. MMSI: 227145200.

Date/timePositionNaut miles runAvg speedWind from/ knotsBaromVisibWave heightAir tempDewpointWater temp
2018-Jan-23 00:50N 46°41' W 003°21'2 3.6
2018-Jan-23 00:24N 46°42' W 003°21'31 2.5
2018-Jan-22 11:47N 47°13' W 003°26'2 5.7
2018-Jan-22 11:30N 47°14' W 003°26'3 5.8
2018-Jan-22 11:00N 47°17' W 003°26'3 5.8
2018-Jan-22 10:30N 47°20' W 003°25'3 5.8
2018-Jan-22 10:00N 47°23' W 003°25'3 5.8
2018-Jan-22 09:30N 47°26' W 003°24'3 5.8
2018-Jan-22 09:00N 47°29' W 003°24'3 5.8
2018-Jan-22 08:31N 47°32' W 003°23'3 5.5
2018-Jan-22 08:00N 47°34' W 003°23'3 5.5
2018-Jan-22 07:31N 47°37' W 003°23'3 5.6
2018-Jan-22 07:00N 47°40' W 003°22'2 4.9
2018-Jan-22 06:30N 47°42' W 003°22'1 2.6
2018-Jan-22 06:00N 47°44' W 003°22'0 0.1
2018-Jan-22 05:31N 47°44' W 003°22'0 0.0
2018-Jan-22 05:00N 47°44' W 003°22'  
2018-Jan-18 10:16N 47°44' W 003°22'0 0.0
2018-Jan-18 10:00N 47°44' W 003°22'0 0.0
2018-Jan-18 09:30N 47°44' W 003°22'0 0.0
2018-Jan-18 09:00N 47°44' W 003°22'  
Track history (hours):
 
Tides and Currents Weather Stations Pressure Air Temp Water Temp Dewpoint Dewpoint Depression Visibility Wind Speed Wind Dir Waves Ship Positions

F/V Le Belier

Last reported at 2018-Jan-23 00:50 UTC. Time now 2018-Jan-23 14:02 UTC.
Position N 46°41' W 003°21'.

Length 16 m.

Type: Fishing. MMSI: 227145200.

Date/timePositionNaut miles runAvg speedWind from/ knotsBaromVisibWave heightAir tempDewpointWater temp
2018-Jan-23 00:50N 46°41' W 003°21'2 3.6
2018-Jan-23 00:24N 46°42' W 003°21'31 2.5
2018-Jan-22 11:47N 47°13' W 003°26'2 5.7
2018-Jan-22 11:30N 47°14' W 003°26'3 5.8
2018-Jan-22 11:00N 47°17' W 003°26'3 5.8
2018-Jan-22 10:30N 47°20' W 003°25'3 5.8
2018-Jan-22 10:00N 47°23' W 003°25'3 5.8
2018-Jan-22 09:30N 47°26' W 003°24'3 5.8
2018-Jan-22 09:00N 47°29' W 003°24'3 5.8
2018-Jan-22 08:31N 47°32' W 003°23'3 5.5
2018-Jan-22 08:00N 47°34' W 003°23'3 5.5
2018-Jan-22 07:31N 47°37' W 003°23'3 5.6
2018-Jan-22 07:00N 47°40' W 003°22'2 4.9
2018-Jan-22 06:30N 47°42' W 003°22'1 2.6
2018-Jan-22 06:00N 47°44' W 003°22'0 0.1
2018-Jan-22 05:31N 47°44' W 003°22'0 0.0
2018-Jan-22 05:00N 47°44' W 003°22'  
2018-Jan-18 10:16N 47°44' W 003°22'0 0.0
2018-Jan-18 10:00N 47°44' W 003°22'0 0.0
2018-Jan-18 09:30N 47°44' W 003°22'0 0.0
2018-Jan-18 09:00N 47°44' W 003°22'  

Dump ship's entire track history